sensor_id;sensor_type;location;lat;lon;timestamp;temperature;humidity
20066;DHT22;10193;48.884;9.182;2023-05-07T00:00:56;18.60;55.70
20066;DHT22;10193;48.884;9.182;2023-05-07T00:03:26;18.60;55.70
20066;DHT22;10193;48.884;9.182;2023-05-07T00:05:53;18.60;55.80
20066;DHT22;10193;48.884;9.182;2023-05-07T00:08:19;18.60;55.90
20066;DHT22;10193;48.884;9.182;2023-05-07T00:10:47;18.60;55.90
20066;DHT22;10193;48.884;9.182;2023-05-07T00:13:13;18.70;56.00
20066;DHT22;10193;48.884;9.182;2023-05-07T00:15:40;18.70;56.00
20066;DHT22;10193;48.884;9.182;2023-05-07T00:18:07;18.70;55.90
20066;DHT22;10193;48.884;9.182;2023-05-07T00:20:35;18.70;56.00
20066;DHT22;10193;48.884;9.182;2023-05-07T00:23:01;18.70;55.90
20066;DHT22;10193;48.884;9.182;2023-05-07T00:25:28;18.70;55.90
20066;DHT22;10193;48.884;9.182;2023-05-07T00:27:55;18.70;55.90
20066;DHT22;10193;48.884;9.182;2023-05-07T00:30:22;18.70;55.90
20066;DHT22;10193;48.884;9.182;2023-05-07T00:32:49;18.70;55.90
20066;DHT22;10193;48.884;9.182;2023-05-07T00:35:16;18.70;55.90
20066;DHT22;10193;48.884;9.182;2023-05-07T00:37:44;18.80;55.90
20066;DHT22;10193;48.884;9.182;2023-05-07T00:40:10;18.80;56.00
20066;DHT22;10193;48.884;9.182;2023-05-07T00:42:37;18.70;55.90
20066;DHT22;10193;48.884;9.182;2023-05-07T00:45:05;18.70;55.90
20066;DHT22;10193;48.884;9.182;2023-05-07T00:47:33;18.70;55.90
20066;DHT22;10193;48.884;9.182;2023-05-07T00:50:00;18.70;55.90
20066;DHT22;10193;48.884;9.182;2023-05-07T00:52:26;18.60;55.80
20066;DHT22;10193;48.884;9.182;2023-05-07T00:54:55;18.60;55.90
20066;DHT22;10193;48.884;9.182;2023-05-07T00:57:22;18.50;55.90
20066;DHT22;10193;48.884;9.182;2023-05-07T00:59:51;18.50;56.00
20066;DHT22;10193;48.884;9.182;2023-05-07T01:02:18;18.40;56.00
20066;DHT22;10193;48.884;9.182;2023-05-07T01:04:44;18.40;56.10
20066;DHT22;10193;48.884;9.182;2023-05-07T01:07:11;18.30;56.10
20066;DHT22;10193;48.884;9.182;2023-05-07T01:09:38;18.20;56.10
20066;DHT22;10193;48.884;9.182;2023-05-07T01:12:07;18.20;56.30
20066;DHT22;10193;48.884;9.182;2023-05-07T01:14:34;18.10;56.40
20066;DHT22;10193;48.884;9.182;2023-05-07T01:17:01;18.10;56.50
20066;DHT22;10193;48.884;9.182;2023-05-07T01:19:29;18.00;56.50
20066;DHT22;10193;48.884;9.182;2023-05-07T01:22:01;18.00;56.60
20066;DHT22;10193;48.884;9.182;2023-05-07T01:24:31;17.90;56.70
20066;DHT22;10193;48.884;9.182;2023-05-07T01:26:58;17.90;56.80
20066;DHT22;10193;48.884;9.182;2023-05-07T01:29:26;17.90;56.80
20066;DHT22;10193;48.884;9.182;2023-05-07T01:31:53;17.80;56.80
20066;DHT22;10193;48.884;9.182;2023-05-07T01:34:21;17.80;56.90
20066;DHT22;10193;48.884;9.182;2023-05-07T01:36:48;17.80;57.00
20066;DHT22;10193;48.884;9.182;2023-05-07T01:39:15;17.70;57.10
20066;DHT22;10193;48.884;9.182;2023-05-07T01:41:44;17.70;57.20
20066;DHT22;10193;48.884;9.182;2023-05-07T01:44:12;17.70;57.30
20066;DHT22;10193;48.884;9.182;2023-05-07T01:46:40;17.70;57.40
20066;DHT22;10193;48.884;9.182;2023-05-07T01:49:06;17.70;57.50
20066;DHT22;10193;48.884;9.182;2023-05-07T01:51:34;17.70;57.50
20066;DHT22;10193;48.884;9.182;2023-05-07T01:54:00;17.70;57.60
20066;DHT22;10193;48.884;9.182;2023-05-07T01:56:27;17.60;57.60
20066;DHT22;10193;48.884;9.182;2023-05-07T01:58:55;17.60;57.50
20066;DHT22;10193;48.884;9.182;2023-05-07T02:01:22;17.60;57.50
20066;DHT22;10193;48.884;9.182;2023-05-07T02:03:49;17.60;57.60
20066;DHT22;10193;48.884;9.182;2023-05-07T02:06:15;17.60;57.60
20066;DHT22;10193;48.884;9.182;2023-05-07T02:08:42;17.60;57.60
20066;DHT22;10193;48.884;9.182;2023-05-07T02:11:09;17.60;57.60
20066;DHT22;10193;48.884;9.182;2023-05-07T02:13:36;17.60;57.70
20066;DHT22;10193;48.884;9.182;2023-05-07T02:16:04;17.50;57.70
20066;DHT22;10193;48.884;9.182;2023-05-07T02:18:32;17.50;57.70
20066;DHT22;10193;48.884;9.182;2023-05-07T02:20:58;17.50;57.70
20066;DHT22;10193;48.884;9.182;2023-05-07T02:23:25;17.50;57.80
20066;DHT22;10193;48.884;9.182;2023-05-07T02:25:52;17.50;57.90
20066;DHT22;10193;48.884;9.182;2023-05-07T02:28:18;17.40;57.80
20066;DHT22;10193;48.884;9.182;2023-05-07T02:30:45;17.40;57.90
20066;DHT22;10193;48.884;9.182;2023-05-07T02:33:13;17.40;57.90
20066;DHT22;10193;48.884;9.182;2023-05-07T02:35:39;17.40;57.90
20066;DHT22;10193;48.884;9.182;2023-05-07T02:38:06;17.40;57.90
20066;DHT22;10193;48.884;9.182;2023-05-07T02:40:36;17.40;57.90
20066;DHT22;10193;48.884;9.182;2023-05-07T02:43:04;17.40;58.00
20066;DHT22;10193;48.884;9.182;2023-05-07T02:45:31;17.40;58.00
20066;DHT22;10193;48.884;9.182;2023-05-07T02:47:57;17.40;58.00
20066;DHT22;10193;48.884;9.182;2023-05-07T02:50:25;17.30;57.90
20066;DHT22;10193;48.884;9.182;2023-05-07T02:52:52;17.30;57.90
20066;DHT22;10193;48.884;9.182;2023-05-07T02:55:19;17.30;57.90
20066;DHT22;10193;48.884;9.182;2023-05-07T02:57:45;17.20;57.90
20066;DHT22;10193;48.884;9.182;2023-05-07T03:00:14;17.20;58.00
20066;DHT22;10193;48.884;9.182;2023-05-07T03:02:41;17.20;58.00
20066;DHT22;10193;48.884;9.182;2023-05-07T03:05:07;17.10;58.00
20066;DHT22;10193;48.884;9.182;2023-05-07T03:07:36;17.10;58.10
20066;DHT22;10193;48.884;9.182;2023-05-07T03:10:03;17.10;58.10
20066;DHT22;10193;48.884;9.182;2023-05-07T03:12:30;17.10;58.20
20066;DHT22;10193;48.884;9.182;2023-05-07T03:14:57;17.00;58.20
20066;DHT22;10193;48.884;9.182;2023-05-07T03:17:24;17.00;58.30
20066;DHT22;10193;48.884;9.182;2023-05-07T03:19:51;16.90;58.30
20066;DHT22;10193;48.884;9.182;2023-05-07T03:22:17;16.90;58.30
20066;DHT22;10193;48.884;9.182;2023-05-07T03:24:45;16.90;58.40
20066;DHT22;10193;48.884;9.182;2023-05-07T03:27:12;16.90;58.50
20066;DHT22;10193;48.884;9.182;2023-05-07T03:29:39;16.80;58.50
20066;DHT22;10193;48.884;9.182;2023-05-07T03:32:05;16.80;58.60
20066;DHT22;10193;48.884;9.182;2023-05-07T03:34:32;16.80;58.60
20066;DHT22;10193;48.884;9.182;2023-05-07T03:36:59;16.80;58.70
20066;DHT22;10193;48.884;9.182;2023-05-07T03:39:26;16.80;58.80
20066;DHT22;10193;48.884;9.182;2023-05-07T03:41:54;16.70;58.70
20066;DHT22;10193;48.884;9.182;2023-05-07T03:44:21;16.70;58.80
20066;DHT22;10193;48.884;9.182;2023-05-07T03:46:47;16.70;58.90
20066;DHT22;10193;48.884;9.182;2023-05-07T03:49:14;16.70;58.90
20066;DHT22;10193;48.884;9.182;2023-05-07T03:51:41;16.70;58.90
20066;DHT22;10193;48.884;9.182;2023-05-07T03:54:08;16.70;59.00
20066;DHT22;10193;48.884;9.182;2023-05-07T03:56:35;16.60;58.90
20066;DHT22;10193;48.884;9.182;2023-05-07T03:59:03;16.60;59.00
20066;DHT22;10193;48.884;9.182;2023-05-07T04:01:30;16.50;58.90
20066;DHT22;10193;48.884;9.182;2023-05-07T04:03:56;16.50;59.00
20066;DHT22;10193;48.884;9.182;2023-05-07T04:06:23;16.50;59.10
20066;DHT22;10193;48.884;9.182;2023-05-07T04:08:50;16.50;59.10
20066;DHT22;10193;48.884;9.182;2023-05-07T04:11:17;16.50;59.30
20066;DHT22;10193;48.884;9.182;2023-05-07T04:13:43;16.40;59.30
20066;DHT22;10193;48.884;9.182;2023-05-07T04:16:11;16.40;59.30
20066;DHT22;10193;48.884;9.182;2023-05-07T04:18:38;16.40;59.50
20066;DHT22;10193;48.884;9.182;2023-05-07T04:21:05;16.40;59.50
20066;DHT22;10193;48.884;9.182;2023-05-07T04:23:32;16.40;59.70
20066;DHT22;10193;48.884;9.182;2023-05-07T04:25:58;16.40;59.70
20066;DHT22;10193;48.884;9.182;2023-05-07T04:28:26;16.40;59.70
20066;DHT22;10193;48.884;9.182;2023-05-07T04:30:53;16.40;59.90
20066;DHT22;10193;48.884;9.182;2023-05-07T04:33:21;16.40;59.90
20066;DHT22;10193;48.884;9.182;2023-05-07T04:35:47;16.40;60.00
20066;DHT22;10193;48.884;9.182;2023-05-07T04:38:14;16.40;60.10
20066;DHT22;10193;48.884;9.182;2023-05-07T04:40:42;16.40;60.20
20066;DHT22;10193;48.884;9.182;2023-05-07T04:43:08;16.40;60.30
20066;DHT22;10193;48.884;9.182;2023-05-07T04:45:35;16.50;60.60
20066;DHT22;10193;48.884;9.182;2023-05-07T04:48:02;16.50;60.70
20066;DHT22;10193;48.884;9.182;2023-05-07T04:50:30;16.60;60.80
20066;DHT22;10193;48.884;9.182;2023-05-07T04:52:56;16.60;60.80
20066;DHT22;10193;48.884;9.182;2023-05-07T04:55:23;16.70;60.90
20066;DHT22;10193;48.884;9.182;2023-05-07T04:57:50;16.80;60.90
20066;DHT22;10193;48.884;9.182;2023-05-07T05:00:17;16.90;61.20
20066;DHT22;10193;48.884;9.182;2023-05-07T05:02:45;17.00;61.60
20066;DHT22;10193;48.884;9.182;2023-05-07T05:05:11;17.10;61.30
20066;DHT22;10193;48.884;9.182;2023-05-07T05:07:39;17.20;61.10
20066;DHT22;10193;48.884;9.182;2023-05-07T05:10:06;17.30;60.90
20066;DHT22;10193;48.884;9.182;2023-05-07T05:12:33;17.40;60.70
20066;DHT22;10193;48.884;9.182;2023-05-07T05:15:00;17.50;60.60
20066;DHT22;10193;48.884;9.182;2023-05-07T05:17:27;17.50;60.40
20066;DHT22;10193;48.884;9.182;2023-05-07T05:19:53;17.60;60.20
20066;DHT22;10193;48.884;9.182;2023-05-07T05:22:20;17.60;60.10
20066;DHT22;10193;48.884;9.182;2023-05-07T05:24:48;17.70;60.20
20066;DHT22;10193;48.884;9.182;2023-05-07T05:27:15;17.70;60.00
20066;DHT22;10193;48.884;9.182;2023-05-07T05:29:42;17.80;60.00
20066;DHT22;10193;48.884;9.182;2023-05-07T05:32:08;17.90;60.00
20066;DHT22;10193;48.884;9.182;2023-05-07T05:34:35;17.80;60.10
20066;DHT22;10193;48.884;9.182;2023-05-07T05:37:02;18.00;61.00
20066;DHT22;10193;48.884;9.182;2023-05-07T05:39:28;18.10;61.70
20066;DHT22;10193;48.884;9.182;2023-05-07T05:41:57;18.40;62.30
20066;DHT22;10193;48.884;9.182;2023-05-07T05:44:24;18.70;62.50
20066;DHT22;10193;48.884;9.182;2023-05-07T05:46:50;19.10;62.80
20066;DHT22;10193;48.884;9.182;2023-05-07T05:49:17;19.50;62.80
20066;DHT22;10193;48.884;9.182;2023-05-07T05:51:44;19.90;62.50
20066;DHT22;10193;48.884;9.182;2023-05-07T05:54:11;20.30;62.10
20066;DHT22;10193;48.884;9.182;2023-05-07T05:56:38;20.70;61.70
20066;DHT22;10193;48.884;9.182;2023-05-07T05:59:06;21.10;61.40
20066;DHT22;10193;48.884;9.182;2023-05-07T06:01:33;21.40;60.70
20066;DHT22;10193;48.884;9.182;2023-05-07T06:03:59;21.70;60.20
20066;DHT22;10193;48.884;9.182;2023-05-07T06:06:26;22.00;59.70
20066;DHT22;10193;48.884;9.182;2023-05-07T06:08:53;22.30;59.20
20066;DHT22;10193;48.884;9.182;2023-05-07T06:11:20;22.60;58.80
20066;DHT22;10193;48.884;9.182;2023-05-07T06:13:46;22.70;58.10
20066;DHT22;10193;48.884;9.182;2023-05-07T06:16:15;22.90;57.40
20066;DHT22;10193;48.884;9.182;2023-05-07T06:18:41;23.00;57.20
20066;DHT22;10193;48.884;9.182;2023-05-07T06:21:09;23.10;57.20
20066;DHT22;10193;48.884;9.182;2023-05-07T06:23:36;23.20;56.80
20066;DHT22;10193;48.884;9.182;2023-05-07T06:26:03;23.30;56.30
20066;DHT22;10193;48.884;9.182;2023-05-07T06:28:30;23.20;55.80
20066;DHT22;10193;48.884;9.182;2023-05-07T06:31:11;23.20;55.60
20066;DHT22;10193;48.884;9.182;2023-05-07T06:33:39;23.10;55.20
20066;DHT22;10193;48.884;9.182;2023-05-07T06:36:06;23.00;55.60
20066;DHT22;10193;48.884;9.182;2023-05-07T06:38:33;22.90;55.90
20066;DHT22;10193;48.884;9.182;2023-05-07T06:41:00;22.90;56.40
20066;DHT22;10193;48.884;9.182;2023-05-07T06:43:26;23.00;56.60
20066;DHT22;10193;48.884;9.182;2023-05-07T06:45:53;23.10;56.80
20066;DHT22;10193;48.884;9.182;2023-05-07T06:48:20;23.30;56.90
20066;DHT22;10193;48.884;9.182;2023-05-07T06:50:48;23.50;56.80
20066;DHT22;10193;48.884;9.182;2023-05-07T06:53:14;23.70;56.70
20066;DHT22;10193;48.884;9.182;2023-05-07T06:55:41;23.80;56.40
20066;DHT22;10193;48.884;9.182;2023-05-07T06:58:08;24.10;56.20
20066;DHT22;10193;48.884;9.182;2023-05-07T07:00:34;24.30;56.00
20066;DHT22;10193;48.884;9.182;2023-05-07T07:03:01;24.40;55.40
20066;DHT22;10193;48.884;9.182;2023-05-07T07:05:28;24.60;55.10
20066;DHT22;10193;48.884;9.182;2023-05-07T07:07:56;24.70;54.60
20066;DHT22;10193;48.884;9.182;2023-05-07T07:10:23;24.80;54.30
20066;DHT22;10193;48.884;9.182;2023-05-07T07:12:50;24.90;54.20
20066;DHT22;10193;48.884;9.182;2023-05-07T07:15:17;25.00;54.00
20066;DHT22;10193;48.884;9.182;2023-05-07T07:17:45;25.00;53.80
20066;DHT22;10193;48.884;9.182;2023-05-07T07:20:12;25.00;53.60
20066;DHT22;10193;48.884;9.182;2023-05-07T07:22:39;25.00;53.60
20066;DHT22;10193;48.884;9.182;2023-05-07T07:25:08;24.90;53.60
20066;DHT22;10193;48.884;9.182;2023-05-07T07:27:34;24.90;53.50
20066;DHT22;10193;48.884;9.182;2023-05-07T07:30:01;24.80;53.40
20066;DHT22;10193;48.884;9.182;2023-05-07T07:32:28;24.70;53.30
20066;DHT22;10193;48.884;9.182;2023-05-07T07:34:54;24.60;53.10
20066;DHT22;10193;48.884;9.182;2023-05-07T07:37:21;24.50;53.10
20066;DHT22;10193;48.884;9.182;2023-05-07T07:39:48;24.40;53.20
20066;DHT22;10193;48.884;9.182;2023-05-07T07:42:16;24.30;53.30
20066;DHT22;10193;48.884;9.182;2023-05-07T07:44:43;24.20;53.50
20066;DHT22;10193;48.884;9.182;2023-05-07T07:47:10;24.10;53.70
20066;DHT22;10193;48.884;9.182;2023-05-07T07:49:36;24.00;53.80
20066;DHT22;10193;48.884;9.182;2023-05-07T07:52:03;23.90;54.00
20066;DHT22;10193;48.884;9.182;2023-05-07T07:54:31;23.80;53.90
20066;DHT22;10193;48.884;9.182;2023-05-07T07:56:58;23.80;54.00
20066;DHT22;10193;48.884;9.182;2023-05-07T07:59:26;23.80;54.10
20066;DHT22;10193;48.884;9.182;2023-05-07T08:01:53;23.70;54.00
20066;DHT22;10193;48.884;9.182;2023-05-07T08:04:22;23.70;54.10
20066;DHT22;10193;48.884;9.182;2023-05-07T08:06:49;23.60;54.10
20066;DHT22;10193;48.884;9.182;2023-05-07T08:09:15;23.60;54.10
20066;DHT22;10193;48.884;9.182;2023-05-07T08:11:42;23.50;54.10
20066;DHT22;10193;48.884;9.182;2023-05-07T08:14:09;23.40;54.00
20066;DHT22;10193;48.884;9.182;2023-05-07T08:16:37;23.40;54.20
20066;DHT22;10193;48.884;9.182;2023-05-07T08:19:03;23.30;54.20
20066;DHT22;10193;48.884;9.182;2023-05-07T08:21:30;23.30;54.40
20066;DHT22;10193;48.884;9.182;2023-05-07T08:23:57;23.30;54.60
20066;DHT22;10193;48.884;9.182;2023-05-07T08:26:24;23.30;54.80
20066;DHT22;10193;48.884;9.182;2023-05-07T08:28:50;23.30;54.80
20066;DHT22;10193;48.884;9.182;2023-05-07T08:31:17;23.30;54.90
20066;DHT22;10193;48.884;9.182;2023-05-07T08:33:45;23.30;55.00
20066;DHT22;10193;48.884;9.182;2023-05-07T08:36:11;23.30;55.10
20066;DHT22;10193;48.884;9.182;2023-05-07T08:38:38;23.40;55.30
20066;DHT22;10193;48.884;9.182;2023-05-07T08:41:10;23.40;55.20
20066;DHT22;10193;48.884;9.182;2023-05-07T08:43:38;23.40;55.10
20066;DHT22;10193;48.884;9.182;2023-05-07T08:46:09;23.50;55.20
20066;DHT22;10193;48.884;9.182;2023-05-07T08:48:36;23.50;55.20
20066;DHT22;10193;48.884;9.182;2023-05-07T08:51:05;23.60;55.30
20066;DHT22;10193;48.884;9.182;2023-05-07T08:53:32;23.70;55.30
20066;DHT22;10193;48.884;9.182;2023-05-07T08:55:59;23.80;55.50
20066;DHT22;10193;48.884;9.182;2023-05-07T08:58:26;23.80;55.30
20066;DHT22;10193;48.884;9.182;2023-05-07T09:00:53;24.00;55.40
20066;DHT22;10193;48.884;9.182;2023-05-07T09:03:20;24.10;55.50
20066;DHT22;10193;48.884;9.182;2023-05-07T09:05:47;24.20;55.50
20066;DHT22;10193;48.884;9.182;2023-05-07T09:08:16;24.40;55.60
20066;DHT22;10193;48.884;9.182;2023-05-07T09:10:42;24.50;55.50
20066;DHT22;10193;48.884;9.182;2023-05-07T09:13:09;24.70;55.50
20066;DHT22;10193;48.884;9.182;2023-05-07T09:15:38;24.80;55.30
20066;DHT22;10193;48.884;9.182;2023-05-07T09:18:05;24.90;55.10
20066;DHT22;10193;48.884;9.182;2023-05-07T09:20:31;25.00;54.90
20066;DHT22;10193;48.884;9.182;2023-05-07T09:22:58;25.00;54.70
20066;DHT22;10193;48.884;9.182;2023-05-07T09:25:30;25.20;54.60
20066;DHT22;10193;48.884;9.182;2023-05-07T09:27:57;25.20;54.30
20066;DHT22;10193;48.884;9.182;2023-05-07T09:30:27;25.40;54.40
20066;DHT22;10193;48.884;9.182;2023-05-07T09:32:54;25.40;54.10
20066;DHT22;10193;48.884;9.182;2023-05-07T09:35:21;25.50;54.10
20066;DHT22;10193;48.884;9.182;2023-05-07T09:37:49;25.50;53.80
20066;DHT22;10193;48.884;9.182;2023-05-07T09:40:23;25.60;53.50
20066;DHT22;10193;48.884;9.182;2023-05-07T09:42:52;25.60;53.00
20066;DHT22;10193;48.884;9.182;2023-05-07T09:45:22;25.60;53.00
20066;DHT22;10193;48.884;9.182;2023-05-07T09:47:52;25.60;52.80
20066;DHT22;10193;48.884;9.182;2023-05-07T09:50:22;25.60;52.80
20066;DHT22;10193;48.884;9.182;2023-05-07T09:52:52;25.60;52.80
20066;DHT22;10193;48.884;9.182;2023-05-07T09:55:20;25.60;52.90
20066;DHT22;10193;48.884;9.182;2023-05-07T09:57:48;25.60;53.00
20066;DHT22;10193;48.884;9.182;2023-05-07T10:00:17;25.70;53.00
20066;DHT22;10193;48.884;9.182;2023-05-07T10:02:45;25.70;52.70
20066;DHT22;10193;48.884;9.182;2023-05-07T10:05:15;25.70;52.70
20066;DHT22;10193;48.884;9.182;2023-05-07T10:07:42;25.70;52.50
20066;DHT22;10193;48.884;9.182;2023-05-07T10:10:09;25.70;52.60
20066;DHT22;10193;48.884;9.182;2023-05-07T10:12:36;25.70;52.60
20066;DHT22;10193;48.884;9.182;2023-05-07T10:15:06;25.70;52.60
20066;DHT22;10193;48.884;9.182;2023-05-07T10:17:36;25.70;52.60
20066;DHT22;10193;48.884;9.182;2023-05-07T10:20:04;25.80;52.60
20066;DHT22;10193;48.884;9.182;2023-05-07T10:22:36;25.80;52.40
20066;DHT22;10193;48.884;9.182;2023-05-07T10:25:06;25.80;52.20
20066;DHT22;10193;48.884;9.182;2023-05-07T10:27:36;25.80;52.10
20066;DHT22;10193;48.884;9.182;2023-05-07T10:30:12;25.90;52.20
20066;DHT22;10193;48.884;9.182;2023-05-07T10:32:46;25.80;51.80
20066;DHT22;10193;48.884;9.182;2023-05-07T10:35:18;25.90;51.90
20066;DHT22;10193;48.884;9.182;2023-05-07T10:37:46;25.80;51.80
20066;DHT22;10193;48.884;9.182;2023-05-07T10:40:14;25.90;52.00
20066;DHT22;10193;48.884;9.182;2023-05-07T10:42:53;25.80;52.10
20066;DHT22;10193;48.884;9.182;2023-05-07T10:45:22;25.90;52.20
20066;DHT22;10193;48.884;9.182;2023-05-07T10:48:14;25.90;52.40
20066;DHT22;10193;48.884;9.182;2023-05-07T10:50:42;26.00;51.90
20066;DHT22;10193;48.884;9.182;2023-05-07T10:53:30;26.00;52.10
20066;DHT22;10193;48.884;9.182;2023-05-07T10:56:23;26.10;51.40
20066;DHT22;10193;48.884;9.182;2023-05-07T10:58:50;26.10;51.40
20066;DHT22;10193;48.884;9.182;2023-05-07T11:01:49;26.10;52.00
20066;DHT22;10193;48.884;9.182;2023-05-07T11:04:18;26.10;51.30
20066;DHT22;10193;48.884;9.182;2023-05-07T11:10:04;26.20;51.00
20066;DHT22;10193;48.884;9.182;2023-05-07T11:12:47;26.20;51.20
20066;DHT22;10193;48.884;9.182;2023-05-07T11:15:15;26.20;50.80
20066;DHT22;10193;48.884;9.182;2023-05-07T11:17:53;26.20;51.30
20066;DHT22;10193;48.884;9.182;2023-05-07T11:26:45;26.10;50.90
20066;DHT22;10193;48.884;9.182;2023-05-07T11:29:13;26.10;50.70
20066;DHT22;10193;48.884;9.182;2023-05-07T11:31:40;26.20;51.10
20066;DHT22;10193;48.884;9.182;2023-05-07T11:34:08;26.10;51.00
20066;DHT22;10193;48.884;9.182;2023-05-07T11:36:36;26.10;51.10
20066;DHT22;10193;48.884;9.182;2023-05-07T11:39:23;26.20;51.10
20066;DHT22;10193;48.884;9.182;2023-05-07T11:41:52;26.10;50.60
20066;DHT22;10193;48.884;9.182;2023-05-07T11:44:19;26.20;50.90
20066;DHT22;10193;48.884;9.182;2023-05-07T11:46:46;26.20;51.00
20066;DHT22;10193;48.884;9.182;2023-05-07T11:49:12;26.20;50.90
20066;DHT22;10193;48.884;9.182;2023-05-07T11:51:39;26.30;50.90
20066;DHT22;10193;48.884;9.182;2023-05-07T11:54:08;26.30;50.80
20066;DHT22;10193;48.884;9.182;2023-05-07T11:56:37;26.40;50.60
20066;DHT22;10193;48.884;9.182;2023-05-07T11:59:05;26.50;50.40
20066;DHT22;10193;48.884;9.182;2023-05-07T12:01:32;26.50;49.90
20066;DHT22;10193;48.884;9.182;2023-05-07T12:04:03;26.50;49.90
20066;DHT22;10193;48.884;9.182;2023-05-07T12:06:29;26.60;49.70
20066;DHT22;10193;48.884;9.182;2023-05-07T12:08:56;26.60;49.50
20066;DHT22;10193;48.884;9.182;2023-05-07T12:11:24;26.60;49.40
20066;DHT22;10193;48.884;9.182;2023-05-07T12:13:51;26.70;49.50
20066;DHT22;10193;48.884;9.182;2023-05-07T12:16:21;26.70;49.60
20066;DHT22;10193;48.884;9.182;2023-05-07T12:18:48;26.80;49.50
20066;DHT22;10193;48.884;9.182;2023-05-07T12:21:15;26.90;49.50
20066;DHT22;10193;48.884;9.182;2023-05-07T12:23:42;26.90;49.40
20066;DHT22;10193;48.884;9.182;2023-05-07T12:26:09;27.00;49.10
20066;DHT22;10193;48.884;9.182;2023-05-07T12:28:37;27.10;49.10
20066;DHT22;10193;48.884;9.182;2023-05-07T12:31:05;27.10;49.00
20066;DHT22;10193;48.884;9.182;2023-05-07T12:33:34;27.20;48.90
20066;DHT22;10193;48.884;9.182;2023-05-07T12:36:04;27.30;48.70
20066;DHT22;10193;48.884;9.182;2023-05-07T12:38:35;27.30;48.50
20066;DHT22;10193;48.884;9.182;2023-05-07T12:41:03;27.30;48.30
20066;DHT22;10193;48.884;9.182;2023-05-07T12:43:30;27.40;48.40
20066;DHT22;10193;48.884;9.182;2023-05-07T12:45:59;27.50;48.40
20066;DHT22;10193;48.884;9.182;2023-05-07T12:48:27;27.50;48.20
20066;DHT22;10193;48.884;9.182;2023-05-07T12:50:56;27.50;48.10
20066;DHT22;10193;48.884;9.182;2023-05-07T12:53:24;27.50;48.10
20066;DHT22;10193;48.884;9.182;2023-05-07T12:55:52;27.50;48.00
20066;DHT22;10193;48.884;9.182;2023-05-07T12:58:21;27.60;48.00
20066;DHT22;10193;48.884;9.182;2023-05-07T13:00:48;27.60;48.10
20066;DHT22;10193;48.884;9.182;2023-05-07T13:03:23;27.60;48.10
20066;DHT22;10193;48.884;9.182;2023-05-07T13:05:50;27.50;47.80
20066;DHT22;10193;48.884;9.182;2023-05-07T13:08:26;27.40;47.80
20066;DHT22;10193;48.884;9.182;2023-05-07T13:10:53;27.20;47.60
20066;DHT22;10193;48.884;9.182;2023-05-07T13:13:20;27.00;47.60
20066;DHT22;10193;48.884;9.182;2023-05-07T13:15:47;26.80;47.70
20066;DHT22;10193;48.884;9.182;2023-05-07T13:18:13;26.60;47.80
20066;DHT22;10193;48.884;9.182;2023-05-07T13:20:40;26.30;48.00
20066;DHT22;10193;48.884;9.182;2023-05-07T13:23:07;26.10;48.20
20066;DHT22;10193;48.884;9.182;2023-05-07T13:25:35;25.90;48.40
20066;DHT22;10193;48.884;9.182;2023-05-07T13:28:02;25.60;48.60
20066;DHT22;10193;48.884;9.182;2023-05-07T13:30:29;25.40;48.80
20066;DHT22;10193;48.884;9.182;2023-05-07T13:32:56;25.20;48.90
20066;DHT22;10193;48.884;9.182;2023-05-07T13:35:23;25.10;49.00
20066;DHT22;10193;48.884;9.182;2023-05-07T13:37:50;24.80;49.00
20066;DHT22;10193;48.884;9.182;2023-05-07T13:40:17;24.60;48.90
20066;DHT22;10193;48.884;9.182;2023-05-07T13:42:45;24.40;49.00
20066;DHT22;10193;48.884;9.182;2023-05-07T13:45:12;24.30;49.10
20066;DHT22;10193;48.884;9.182;2023-05-07T13:47:39;24.10;49.20
20066;DHT22;10193;48.884;9.182;2023-05-07T13:50:07;23.90;49.30
20066;DHT22;10193;48.884;9.182;2023-05-07T13:52:34;23.70;49.50
20066;DHT22;10193;48.884;9.182;2023-05-07T13:55:01;23.60;49.80
20066;DHT22;10193;48.884;9.182;2023-05-07T13:57:27;23.40;50.00
20066;DHT22;10193;48.884;9.182;2023-05-07T13:59:55;23.20;50.10
20066;DHT22;10193;48.884;9.182;2023-05-07T14:02:22;23.00;50.10
20066;DHT22;10193;48.884;9.182;2023-05-07T14:04:48;22.90;50.30
20066;DHT22;10193;48.884;9.182;2023-05-07T14:07:15;22.80;50.40
20066;DHT22;10193;48.884;9.182;2023-05-07T14:09:42;22.70;50.50
20066;DHT22;10193;48.884;9.182;2023-05-07T14:12:08;22.70;50.50
20066;DHT22;10193;48.884;9.182;2023-05-07T14:14:35;22.60;50.50
20066;DHT22;10193;48.884;9.182;2023-05-07T14:17:03;22.50;50.40
20066;DHT22;10193;48.884;9.182;2023-05-07T14:19:29;22.60;50.50
20066;DHT22;10193;48.884;9.182;2023-05-07T14:21:56;22.50;50.70
20066;DHT22;10193;48.884;9.182;2023-05-07T14:24:24;22.50;50.90
20066;DHT22;10193;48.884;9.182;2023-05-07T14:26:51;22.40;51.10
20066;DHT22;10193;48.884;9.182;2023-05-07T14:29:17;22.40;51.50
20066;DHT22;10193;48.884;9.182;2023-05-07T14:31:45;22.30;51.70
20066;DHT22;10193;48.884;9.182;2023-05-07T14:34:13;22.20;52.00
20066;DHT22;10193;48.884;9.182;2023-05-07T14:36:39;22.10;52.30
20066;DHT22;10193;48.884;9.182;2023-05-07T14:39:06;22.00;52.60
20066;DHT22;10193;48.884;9.182;2023-05-07T14:41:33;22.00;52.90
20066;DHT22;10193;48.884;9.182;2023-05-07T14:44:00;21.90;53.10
20066;DHT22;10193;48.884;9.182;2023-05-07T14:46:27;21.80;53.40
20066;DHT22;10193;48.884;9.182;2023-05-07T14:48:53;21.70;53.80
20066;DHT22;10193;48.884;9.182;2023-05-07T14:51:21;21.60;53.90
20066;DHT22;10193;48.884;9.182;2023-05-07T14:53:50;21.60;54.20
20066;DHT22;10193;48.884;9.182;2023-05-07T14:56:17;21.50;54.30
20066;DHT22;10193;48.884;9.182;2023-05-07T14:58:45;21.40;54.20
20066;DHT22;10193;48.884;9.182;2023-05-07T15:01:13;21.40;54.30
20066;DHT22;10193;48.884;9.182;2023-05-07T15:03:40;21.40;54.20
20066;DHT22;10193;48.884;9.182;2023-05-07T15:06:06;21.30;54.20
20066;DHT22;10193;48.884;9.182;2023-05-07T15:08:34;21.20;54.30
20066;DHT22;10193;48.884;9.182;2023-05-07T15:11:01;21.20;54.50
20066;DHT22;10193;48.884;9.182;2023-05-07T15:13:28;21.10;54.70
20066;DHT22;10193;48.884;9.182;2023-05-07T15:15:54;21.00;55.10
20066;DHT22;10193;48.884;9.182;2023-05-07T15:18:21;20.90;55.40
20066;DHT22;10193;48.884;9.182;2023-05-07T15:20:48;20.80;55.70
20066;DHT22;10193;48.884;9.182;2023-05-07T15:23:14;20.70;55.90
20066;DHT22;10193;48.884;9.182;2023-05-07T15:25:42;20.60;56.10
20066;DHT22;10193;48.884;9.182;2023-05-07T15:28:09;20.60;56.40
20066;DHT22;10193;48.884;9.182;2023-05-07T15:30:36;20.60;56.50
20066;DHT22;10193;48.884;9.182;2023-05-07T15:33:02;20.50;56.70
20066;DHT22;10193;48.884;9.182;2023-05-07T15:35:30;20.50;57.00
20066;DHT22;10193;48.884;9.182;2023-05-07T15:37:56;20.50;57.30
20066;DHT22;10193;48.884;9.182;2023-05-07T15:40:23;20.40;57.40
20066;DHT22;10193;48.884;9.182;2023-05-07T15:42:54;20.40;57.70